Time;durP1;ratioP1;P1;durP2;ratioP2;P2;SDS_P1;SDS_P2;PMS_P1;PMS_P2;Temp;Humidity;BMP_temperature;BMP_pressure;BME280_temperature;BME280_humidity;BME280_pressure;Samples;Min_cycle;Max_cycle;Signal;HPM_P1;HPM_P2
2022/04/12 00:01:16;;;;;;;7.33;2.00;;;6.50;99.90;;;7.31;100.00;97813.91;4980464;28;20455;-74
2022/04/12 00:03:46;;;;;;;2.57;1.83;;;6.50;99.90;;;7.30;100.00;97804.47;4982369;28;20519;-74
2022/04/12 00:06:15;;;;;;;9.47;1.87;;;6.50;99.90;;;7.27;100.00;97804.81;4981273;28;20484;-74
2022/04/12 00:08:45;;;;;;;4.20;2.10;;;6.40;99.90;;;7.27;100.00;97807.44;4980544;28;21062;-74
2022/04/12 00:11:15;;;;;;;2.07;1.87;;;6.40;99.90;;;7.26;100.00;97808.41;4983256;28;20471;-74
2022/04/12 00:13:46;;;;;;;3.20;2.23;;;6.40;99.90;;;7.19;100.00;97812.66;4981457;28;20462;-74
2022/04/12 00:16:15;;;;;;;5.30;2.20;;;6.40;99.90;;;7.18;100.00;97803.25;4978680;28;20460;-74
2022/04/12 00:19:03;;;;;;;2.20;1.77;;;6.30;99.90;;;7.19;100.00;97799.66;4982577;28;20467;-74
2022/04/12 00:21:35;;;;;;;6.57;1.93;;;6.30;99.90;;;7.15;100.00;97789.78;4980283;28;20472;-74
2022/04/12 00:24:07;;;;;;;3.33;2.03;;;6.30;99.90;;;7.12;100.00;97788.31;4981693;28;20483;-74
2022/04/12 00:26:37;;;;;;;3.00;2.17;;;6.30;99.90;;;7.10;100.00;97764.31;4981204;28;20507;-74
2022/04/12 00:29:07;;;;;;;2.17;1.80;;;6.40;99.90;;;7.02;100.00;97779.94;4980581;28;20473;-74
2022/04/12 00:31:38;;;;;;;3.93;2.10;;;6.20;99.90;;;6.99;100.00;97775.91;4979040;28;20467;-75
2022/04/12 00:34:08;;;;;;;3.43;1.80;;;6.30;99.90;;;6.99;100.00;97775.09;4981959;28;20464;-74
2022/04/12 00:36:38;;;;;;;2.60;1.93;;;6.30;99.90;;;6.99;100.00;97770.69;4984742;28;20463;-74
2022/04/12 00:39:09;;;;;;;2.90;1.90;;;6.20;99.90;;;7.00;100.00;97780.13;4984986;28;20464;-74
2022/04/12 00:41:39;;;;;;;3.13;2.20;;;6.20;99.90;;;6.98;100.00;97784.66;4982816;28;20495;-74
2022/04/12 00:44:10;;;;;;;4.03;2.33;;;6.20;99.90;;;6.89;100.00;97787.50;4982462;28;20448;-74
2022/04/12 00:46:40;;;;;;;2.70;2.03;;;6.00;99.90;;;6.88;100.00;97785.84;4983089;28;20488;-74
2022/04/12 00:49:09;;;;;;;3.57;2.00;;;6.10;99.90;;;6.85;100.00;97778.41;4981781;28;20536;-74
2022/04/12 00:51:40;;;;;;;2.07;1.70;;;6.10;99.90;;;6.82;100.00;97783.94;4978846;28;20519;-74
2022/04/12 00:54:10;;;;;;;3.60;2.07;;;6.00;99.90;;;6.81;100.00;97787.50;4979933;28;20472;-74
2022/04/12 00:56:40;;;;;;;2.23;1.80;;;6.00;99.90;;;6.81;100.00;97779.72;4978984;28;20454;-74
2022/04/12 00:59:12;;;;;;;2.90;1.90;;;6.00;99.90;;;6.81;100.00;97782.31;4983356;28;20512;-74
2022/04/12 01:01:44;;;;;;;6.70;2.00;;;6.00;99.90;;;6.77;100.00;97775.88;4979253;28;20483;-75
2022/04/12 01:04:15;;;;;;;2.57;1.90;;;5.90;99.90;;;6.76;100.00;97780.25;4980796;28;20461;-74
2022/04/12 01:06:45;;;;;;;3.03;2.07;;;5.90;99.90;;;6.75;100.00;97775.22;4981663;28;20579;-74
2022/04/12 01:09:14;;;;;;;3.17;1.50;;;5.80;99.90;;;6.75;100.00;97770.00;4980994;28;20504;-74
2022/04/12 01:11:48;;;;;;;4.30;1.90;;;5.80;99.90;;;6.73;100.00;97774.59;4981266;28;20553;-74
2022/04/12 01:14:19;;;;;;;2.47;1.50;;;5.80;99.90;;;6.68;100.00;97769.88;4983127;28;20456;-74
2022/04/12 01:16:49;;;;;;;2.73;1.80;;;5.80;99.90;;;6.63;100.00;97766.19;4983735;28;20539;-74
2022/04/12 01:19:20;;;;;;;3.93;2.20;;;5.80;99.90;;;6.61;100.00;97762.94;4979124;28;20897;-74
2022/04/12 01:22:03;;;;;;;5.30;1.73;;;5.80;99.90;;;6.57;100.00;97771.06;4979299;28;20825;-74
2022/04/12 01:24:34;;;;;;;4.37;1.90;;;5.70;99.90;;;6.56;100.00;97769.44;4979372;28;20471;-74
2022/04/12 01:27:03;;;;;;;2.17;1.90;;;5.70;99.90;;;6.51;100.00;97774.34;4980533;28;20562;-74
2022/04/12 01:29:37;;;;;;;2.37;1.90;;;5.60;99.90;;;6.49;100.00;97773.69;4978941;28;21480;-74
2022/04/12 01:32:10;;;;;;;4.77;1.50;;;5.70;99.90;;;6.44;100.00;97765.59;4983065;28;20538;-74
2022/04/12 01:34:40;;;;;;;4.53;1.90;;;5.70;99.90;;;6.44;100.00;97765.59;4980910;28;20943;-74
2022/04/12 01:37:10;;;;;;;3.43;1.77;;;5.70;99.90;;;6.45;100.00;97756.84;4981582;28;20996;-74
2022/04/12 01:39:42;;;;;;;3.03;2.10;;;5.60;99.90;;;6.44;100.00;97750.03;4981901;28;20444;-74
2022/04/12 01:42:11;;;;;;;3.70;2.27;;;5.50;99.90;;;6.42;100.00;97761.56;4979103;28;20545;-74
2022/04/12 01:44:40;;;;;;;3.67;1.77;;;5.60;99.90;;;6.40;100.00;97759.13;4983276;28;20870;-74
2022/04/12 01:47:09;;;;;;;2.77;2.13;;;5.60;99.90;;;6.37;100.00;97748.25;4980454;28;20467;-74
2022/04/12 01:49:40;;;;;;;1.97;1.77;;;5.60;99.90;;;6.34;100.00;97749.41;4982830;28;20491;-74
2022/04/12 01:52:11;;;;;;;2.53;1.80;;;5.50;99.90;;;6.33;100.00;97762.53;4981328;28;20575;-74
2022/04/12 01:54:42;;;;;;;5.87;1.77;;;5.50;99.90;;;6.28;100.00;97757.84;4978751;28;20499;-75
2022/04/12 01:57:12;;;;;;;2.43;2.00;;;5.40;99.90;;;6.26;100.00;97765.00;4981756;28;20496;-74
2022/04/12 01:59:41;;;;;;;10.27;2.30;;;5.40;99.90;;;6.27;100.00;97760.63;4979779;28;20511;-74
2022/04/12 02:02:11;;;;;;;1.57;1.47;;;5.40;99.90;;;6.26;100.00;97765.00;4982244;28;20504;-74
2022/04/12 02:04:42;;;;;;;5.57;1.90;;;5.40;99.90;;;6.23;100.00;97764.53;4981571;28;20439;-74
2022/04/12 02:07:12;;;;;;;5.23;2.20;;;5.30;99.90;;;6.16;100.00;97761.78;4979030;28;20469;-74
2022/04/12 02:09:42;;;;;;;2.00;1.60;;;5.40;99.90;;;6.11;100.00;97764.06;4980469;28;20494;-74
2022/04/12 02:12:12;;;;;;;3.83;1.60;;;5.30;99.90;;;6.06;100.00;97763.75;4978229;28;20475;-74
2022/04/12 02:14:41;;;;;;;4.40;2.63;;;5.20;99.90;;;6.10;100.00;97752.06;4978280;28;20495;-74
2022/04/12 02:17:11;;;;;;;2.67;1.80;;;5.20;99.90;;;6.13;100.00;97764.72;4981101;28;20489;-74
2022/04/12 02:19:41;;;;;;;1.43;1.30;;;5.20;99.90;;;6.13;100.00;97756.94;4978589;28;20478;-74
2022/04/12 02:22:11;;;;;;;13.47;1.93;;;5.20;99.90;;;6.11;100.00;97761.47;4978229;28;20479;-74
2022/04/12 02:24:41;;;;;;;2.60;2.40;;;5.20;99.90;;;6.10;100.00;97762.47;4980885;28;20476;-74
2022/04/12 02:27:10;;;;;;;4.77;1.80;;;5.20;99.90;;;6.03;100.00;97761.50;4977200;28;20476;-74
2022/04/12 02:29:40;;;;;;;4.07;1.77;;;5.10;99.90;;;5.98;100.00;97755.97;4977476;28;20531;-74
2022/04/12 02:32:11;;;;;;;2.90;1.80;;;5.20;99.90;;;5.99;100.00;97755.00;4978103;28;20537;-74
2022/04/12 02:34:40;;;;;;;3.30;2.10;;;5.10;99.90;;;6.01;100.00;97759.06;4979183;28;20511;-74
2022/04/12 02:37:10;;;;;;;4.83;2.40;;;5.10;99.90;;;5.94;100.00;97758.09;4977016;28;20469;-74
2022/04/12 02:39:41;;;;;;;1.97;1.73;;;5.00;99.90;;;5.93;100.00;97753.09;4977958;28;20471;-74
2022/04/12 02:42:11;;;;;;;2.73;2.00;;;5.00;99.90;;;5.95;100.00;97754.53;4978054;28;21017;-74
2022/04/12 02:44:40;;;;;;;2.27;1.70;;;5.10;99.90;;;5.97;100.00;97757.75;4975502;28;20519;-74
2022/04/12 02:47:10;;;;;;;5.43;1.87;;;5.10;99.90;;;6.01;100.00;97747.84;4980008;28;20467;-74
2022/04/12 02:49:40;;;;;;;3.53;1.70;;;5.20;99.90;;;6.03;100.00;97741.56;4979212;28;20494;-74
2022/04/12 02:52:10;;;;;;;2.33;2.13;;;5.10;99.90;;;6.03;100.00;97740.75;4978185;28;20554;-74
2022/04/12 02:54:39;;;;;;;2.33;1.87;;;5.20;99.90;;;6.05;100.00;97739.59;4978498;28;20473;-75
2022/04/12 02:57:10;;;;;;;2.30;1.83;;;5.20;99.90;;;6.07;100.00;97742.81;4978998;28;20516;-74
2022/04/12 02:59:39;;;;;;;6.77;2.20;;;5.20;99.90;;;6.10;100.00;97752.06;4978531;28;20981;-74
2022/04/12 03:02:09;;;;;;;2.13;1.90;;;5.20;99.90;;;6.12;100.00;97755.31;4979841;28;20510;-74
2022/04/12 03:04:43;;;;;;;3.03;1.50;;;5.20;99.90;;;6.11;100.00;97751.06;4977175;28;20471;-74
2022/04/12 03:07:12;;;;;;;2.53;2.17;;;5.20;99.90;;;6.12;100.00;97738.91;4977308;28;20523;-74
2022/04/12 03:09:42;;;;;;;4.60;1.70;;;5.20;99.90;;;6.12;100.00;97734.53;4978656;28;20460;-73
2022/04/12 03:12:14;;;;;;;2.67;1.90;;;5.30;99.90;;;6.11;100.00;97738.09;4978589;28;20471;-73
2022/04/12 03:14:44;;;;;;;2.77;1.93;;;5.30;99.90;;;6.13;100.00;97730.97;4980819;28;20502;-74
2022/04/12 03:17:18;;;;;;;2.57;2.30;;;5.30;99.90;;;6.14;100.00;97737.78;4985018;28;20533;-74
2022/04/12 03:19:48;;;;;;;3.93;2.20;;;5.20;99.90;;;6.16;100.00;97743.63;4984577;28;20470;-73
2022/04/12 03:22:18;;;;;;;2.07;1.63;;;5.30;99.90;;;6.15;100.00;97739.41;4983489;28;21243;-73
2022/04/12 03:24:48;;;;;;;2.43;2.13;;;5.30;99.90;;;6.16;100.00;97740.22;4980856;28;20463;-73
2022/04/12 03:27:18;;;;;;;2.70;1.80;;;5.30;99.90;;;6.16;100.00;97735.84;4982816;28;20483;-73
2022/04/12 03:29:48;;;;;;;3.33;1.73;;;5.40;99.90;;;6.17;100.00;97734.06;4983411;28;20444;-73
2022/04/12 03:32:17;;;;;;;3.20;2.03;;;5.30;99.90;;;6.14;100.00;97740.41;4983438;28;20540;-73
2022/04/12 03:34:47;;;;;;;2.53;1.90;;;5.40;99.90;;;6.14;100.00;97743.00;4983121;28;20462;-73
2022/04/12 03:37:16;;;;;;;2.17;1.90;;;5.30;99.90;;;6.11;100.00;97751.06;4985192;28;20461;-73
2022/04/12 03:39:48;;;;;;;4.13;2.20;;;5.30;99.90;;;6.08;100.00;97746.22;4982669;28;20526;-73
2022/04/12 03:42:19;;;;;;;2.70;2.07;;;5.30;99.90;;;6.06;100.00;97733.44;4980247;28;20470;-73
2022/04/12 03:44:49;;;;;;;2.90;2.00;;;5.30;99.90;;;6.07;100.00;97740.22;4981484;28;20977;-73
2022/04/12 03:47:18;;;;;;;3.40;2.03;;;5.20;99.90;;;6.07;100.00;97736.84;4981017;28;20471;-73
2022/04/12 03:49:49;;;;;;;4.40;1.93;;;5.20;99.90;;;6.07;100.00;97729.06;4981966;28;20475;-73
2022/04/12 03:52:19;;;;;;;2.33;2.10;;;5.20;99.90;;;6.07;100.00;97732.44;4981801;28;20575;-73
2022/04/12 03:54:48;;;;;;;6.60;2.50;;;5.20;99.90;;;6.06;100.00;97728.25;4982107;28;20540;-73
2022/04/12 03:57:20;;;;;;;4.07;1.80;;;5.20;99.90;;;6.06;100.00;97730.03;4980019;28;21541;-73
2022/04/12 03:59:49;;;;;;;3.27;2.00;;;5.10;99.90;;;6.07;100.00;97731.66;4979820;28;20491;-80
2022/04/12 04:02:20;;;;;;;4.80;2.90;;;5.10;99.90;;;6.08;100.00;97728.06;4981819;28;21272;-73
2022/04/12 04:04:51;;;;;;;3.53;2.17;;;5.20;99.90;;;6.09;100.00;97729.69;4981872;28;20479;-74
2022/04/12 04:07:23;;;;;;;5.17;1.90;;;5.10;99.90;;;6.08;100.00;97731.47;4980624;28;20472;-74
2022/04/12 04:09:52;;;;;;;2.07;1.70;;;5.10;99.90;;;6.10;100.00;97726.13;4978986;28;20467;-74
2022/04/12 04:12:22;;;;;;;3.33;2.10;;;5.10;99.90;;;6.10;100.00;97731.31;4978915;28;20810;-74
2022/04/12 04:14:51;;;;;;;6.03;1.80;;;5.10;99.90;;;6.10;100.00;97726.13;4978917;28;20499;-74
2022/04/12 04:17:22;;;;;;;4.30;1.90;;;5.20;99.90;;;6.09;100.00;97724.50;4979942;28;20502;-73
2022/04/12 04:19:52;;;;;;;4.40;1.60;;;5.20;99.90;;;6.10;100.00;97727.91;4979473;28;20490;-73
2022/04/12 04:22:21;;;;;;;6.20;1.90;;;5.10;99.90;;;6.10;100.00;97726.13;4982210;28;20884;-74
2022/04/12 04:24:50;;;;;;;5.60;2.27;;;5.20;99.90;;;6.06;100.00;97732.63;4983867;28;20454;-74
2022/04/12 04:27:23;;;;;;;3.67;2.30;;;5.20;99.90;;;6.03;100.00;97732.94;4983109;28;20945;-73
2022/04/12 04:29:55;;;;;;;2.23;2.03;;;5.10;99.90;;;5.97;100.00;97736.22;4984046;28;21018;-73
2022/04/12 04:32:24;;;;;;;2.90;2.10;;;5.20;99.90;;;5.91;100.00;97740.25;4982333;28;20493;-74
2022/04/12 04:34:53;;;;;;;2.10;1.63;;;5.10;99.90;;;5.89;100.00;97742.22;4984490;28;20514;-75
2022/04/12 04:37:23;;;;;;;4.50;2.20;;;5.00;99.90;;;5.86;100.00;97744.34;4985040;28;20503;-74
2022/04/12 04:39:53;;;;;;;3.00;2.13;;;5.00;99.90;;;5.86;100.00;97744.34;4984540;28;20517;-75
2022/04/12 04:42:27;;;;;;;4.23;2.87;;;5.00;99.90;;;5.86;100.00;97749.53;4986667;28;20455;-74
2022/04/12 04:44:57;;;;;;;2.70;1.97;;;5.00;99.90;;;5.84;100.00;97746.25;4986032;28;20932;-74
2022/04/12 04:47:26;;;;;;;2.80;2.10;;;5.00;99.90;;;5.78;100.00;97755.50;4986084;28;20482;-75
2022/04/12 04:49:55;;;;;;;6.13;2.27;;;5.00;99.90;;;5.74;100.00;97753.38;4985297;28;20452;-74
2022/04/12 04:52:25;;;;;;;6.90;1.97;;;5.00;99.90;;;5.73;100.00;97754.34;4985076;28;20502;-75
2022/04/12 04:54:55;;;;;;;5.50;2.20;;;5.00;99.90;;;5.73;100.00;97759.53;4984444;28;20446;-74
2022/04/12 04:57:26;;;;;;;2.20;1.73;;;4.90;99.90;;;5.73;100.00;97764.72;4983392;28;20529;-74
2022/04/12 04:59:56;;;;;;;3.70;1.83;;;4.90;99.90;;;5.73;100.00;97769.91;4981677;28;20454;-74
2022/04/12 05:02:26;;;;;;;2.60;2.07;;;5.00;99.90;;;5.66;100.00;97776.75;4980434;28;20470;-74
2022/04/12 05:04:57;;;;;;;2.20;2.00;;;4.90;99.90;;;5.63;100.00;97771.88;4977866;28;20470;-74
2022/04/12 05:07:26;;;;;;;2.60;2.10;;;4.90;99.90;;;5.63;100.00;97764.09;4977800;28;20467;-74
2022/04/12 05:09:57;;;;;;;2.70;2.40;;;4.80;99.90;;;5.59;100.00;97758.41;4978619;28;20544;-74
2022/04/12 05:12:27;;;;;;;3.47;2.13;;;4.70;99.90;;;5.59;100.00;97756.63;4977975;28;20887;-74
2022/04/12 05:14:56;;;;;;;5.13;2.30;;;4.60;99.90;;;5.53;100.00;97754.72;4977771;28;20941;-73
2022/04/12 05:17:26;;;;;;;3.63;2.70;;;4.60;99.90;;;5.55;100.00;97755.34;4980227;28;20456;-75
2022/04/12 05:19:58;;;;;;;4.13;2.90;;;4.60;99.90;;;5.54;100.00;97761.53;4983617;28;20952;-74
2022/04/12 05:22:28;;;;;;;2.80;2.00;;;4.70;99.90;;;5.56;100.00;97766.53;4983590;28;20457;-75
2022/04/12 05:24:57;;;;;;;4.73;2.20;;;4.60;99.90;;;5.56;100.00;97758.75;4983228;28;20521;-74
2022/04/12 05:27:32;;;;;;;5.97;2.40;;;4.60;99.90;;;5.55;100.00;97760.53;4983450;28;20466;-75
2022/04/12 05:30:03;;;;;;;3.47;2.30;;;4.70;99.90;;;5.53;100.00;97759.88;4981709;28;20450;-74
2022/04/12 05:32:33;;;;;;;3.63;2.10;;;4.80;99.90;;;5.53;100.00;97759.88;4982944;28;20540;-74
2022/04/12 05:35:05;;;;;;;7.50;2.20;;;4.70;99.90;;;5.54;100.00;97758.94;4984221;28;20839;-74
2022/04/12 05:37:43;;;;;;;4.63;2.53;;;4.80;99.90;;;5.54;100.00;97763.31;4981588;28;20445;-74
2022/04/12 05:40:13;;;;;;;5.50;2.50;;;4.80;99.90;;;5.55;100.00;97763.13;4983790;28;20450;-74
2022/04/12 05:42:45;;;;;;;4.73;2.40;;;4.70;99.90;;;5.55;100.00;97759.75;4983206;28;20492;-74
2022/04/12 05:45:16;;;;;;;2.90;2.70;;;4.70;99.90;;;5.59;100.00;97763.59;4983174;28;20472;-74
2022/04/12 05:47:49;;;;;;;3.60;2.30;;;4.90;99.90;;;5.58;100.00;97770.59;4983616;28;20453;-74
2022/04/12 05:50:22;;;;;;;3.00;2.40;;;4.90;99.90;;;5.54;100.00;97777.09;4982211;28;20459;-74
2022/04/12 05:52:51;;;;;;;4.70;2.30;;;4.80;99.90;;;5.57;100.00;97774.16;4982431;28;21077;-74
2022/04/12 05:55:23;;;;;;;4.33;2.80;;;4.90;99.90;;;5.62;100.00;97775.47;4982954;28;20448;-75
2022/04/12 05:57:57;;;;;;;3.00;2.50;;;4.90;99.90;;;5.69;100.00;97771.25;4981419;28;20940;-74
2022/04/12 06:00:28;;;;;;;5.57;3.60;;;4.90;99.90;;;5.75;100.00;97780.97;4984374;28;20791;-74
2022/04/12 06:02:58;;;;;;;3.87;2.30;;;4.80;99.90;;;5.76;100.00;97780.00;4983179;28;20791;-74
2022/04/12 06:05:30;;;;;;;6.37;2.73;;;5.00;99.90;;;5.76;100.00;97780.78;4983418;28;20831;-75
2022/04/12 06:08:00;;;;;;;3.10;2.27;;;5.10;99.90;;;5.78;100.00;97778.84;4982041;28;20822;-74
2022/04/12 06:10:31;;;;;;;12.80;2.50;;;5.20;99.90;;;5.81;100.00;97786.31;4982541;28;20836;-74
2022/04/12 06:13:02;;;;;;;4.77;2.00;;;5.10;99.90;;;5.85;100.00;97781.59;4980544;28;20490;-74
2022/04/12 06:15:31;;;;;;;4.10;2.40;;;5.00;99.90;;;5.92;100.00;97785.19;4981603;28;20455;-74
2022/04/12 06:18:10;;;;;;;7.60;2.40;;;5.10;99.90;;;5.96;100.00;97776.09;4982054;28;20442;-74
2022/04/12 06:20:40;;;;;;;5.53;2.13;;;5.20;99.90;;;6.02;100.00;97784.03;4983281;28;20451;-74
2022/04/12 06:23:10;;;;;;;4.90;2.60;;;5.20;99.90;;;6.07;100.00;97778.38;4982009;28;20516;-74
2022/04/12 06:25:41;;;;;;;3.43;2.90;;;5.20;99.90;;;6.12;100.00;97780.44;4981370;28;20543;-74
2022/04/12 06:28:12;;;;;;;3.43;2.83;;;5.30;99.90;;;6.17;100.00;97781.59;4980143;28;20458;-74
2022/04/12 06:30:43;;;;;;;3.30;2.53;;;5.40;99.90;;;6.23;100.00;97783.50;4981863;28;20452;-74
2022/04/12 06:33:13;;;;;;;3.53;2.40;;;5.40;99.90;;;6.28;100.00;97783.03;4982115;28;20476;-74
2022/04/12 06:35:43;;;;;;;3.23;2.33;;;5.50;99.90;;;6.35;100.00;97776.97;4982712;28;20452;-74
2022/04/12 06:38:13;;;;;;;2.80;2.53;;;5.50;99.90;;;6.40;100.00;97777.28;4984879;28;20454;-75
2022/04/12 06:40:44;;;;;;;6.50;2.97;;;5.60;99.90;;;6.48;100.00;97786.84;4981943;28;20463;-75
2022/04/12 06:43:16;;;;;;;4.57;2.73;;;5.70;99.90;;;6.54;100.00;97784.38;4983182;28;20449;-74
2022/04/12 06:45:45;;;;;;;4.10;2.60;;;5.70;99.90;;;6.62;100.00;97793.94;4982522;28;20968;-74
2022/04/12 06:48:15;;;;;;;3.70;2.43;;;5.80;99.90;;;6.70;100.00;97787.91;4983148;28;20563;-75
2022/04/12 06:50:46;;;;;;;4.93;2.87;;;5.90;99.90;;;6.77;100.00;97792.25;4983451;28;20450;-75
2022/04/12 06:53:15;;;;;;;3.70;2.63;;;6.00;99.90;;;6.84;100.00;97792.38;4981873;28;20497;-75
2022/04/12 06:55:45;;;;;;;5.37;2.80;;;6.00;99.90;;;6.94;100.00;97793.78;4982246;28;20460;-75
2022/04/12 06:58:17;;;;;;;3.50;2.27;;;6.10;99.90;;;7.03;100.00;97794.56;4984008;28;20448;-75
2022/04/12 07:00:47;;;;;;;7.87;3.00;;;6.20;99.90;;;7.11;100.00;97789.34;4981559;28;20479;-75
2022/04/12 07:03:16;;;;;;;5.20;3.00;;;6.30;99.90;;;7.20;100.00;97788.28;4982324;28;20580;-75
2022/04/12 07:05:49;;;;;;;6.60;3.47;;;6.40;99.90;;;7.29;100.00;97784.66;4982149;28;20468;-75
2022/04/12 07:08:19;;;;;;;8.03;3.30;;;6.50;99.90;;;7.39;100.00;97782.63;4982654;28;21430;-75
2022/04/12 07:10:51;;;;;;;9.60;3.27;;;6.60;99.90;;;7.48;100.00;97786.81;4982994;28;20447;-75
2022/04/12 07:13:23;;;;;;;5.20;3.00;;;6.70;99.90;;;7.58;100.00;97786.56;4982314;28;20496;-74
2022/04/12 07:15:52;;;;;;;6.50;3.53;;;6.80;99.90;;;7.67;100.00;97790.72;4978875;28;21079;-75
2022/04/12 07:18:22;;;;;;;6.77;3.60;;;6.90;99.90;;;7.76;100.00;97791.47;4979864;28;20457;-74
2022/04/12 07:20:54;;;;;;;7.77;3.77;;;7.00;99.90;;;7.85;100.00;97788.59;4979653;28;20910;-75
2022/04/12 07:23:25;;;;;;;5.03;3.90;;;7.10;99.90;;;7.95;100.00;97790.97;4979533;28;20440;-75
2022/04/12 07:25:56;;;;;;;7.70;3.93;;;7.20;99.90;;;8.03;100.00;97785.69;4979668;28;20444;-75
2022/04/12 07:28:28;;;;;;;5.60;3.60;;;7.40;99.90;;;8.12;100.00;97778.63;4977891;28;20460;-75
2022/04/12 07:30:58;;;;;;;6.13;4.17;;;7.50;99.90;;;8.21;100.00;97773.16;4978297;28;20820;-76
2022/04/12 07:33:29;;;;;;;4.77;3.60;;;7.60;99.90;;;8.30;100.00;97782.50;4978807;28;21008;-75
2022/04/12 07:36:00;;;;;;;6.27;3.30;;;7.70;99.90;;;8.38;100.00;97782.44;4978518;28;20512;-75
2022/04/12 07:38:30;;;;;;;5.00;3.50;;;7.70;99.90;;;8.46;100.00;97797.16;4979324;28;20476;-75
2022/04/12 07:40:59;;;;;;;9.43;4.07;;;7.80;99.90;;;8.52;100.00;97786.84;4979252;28;20830;-74
2022/04/12 07:43:31;;;;;;;6.43;4.10;;;8.00;99.90;;;8.62;100.00;97788.34;4981527;28;20455;-75
2022/04/12 07:46:01;;;;;;;6.27;3.90;;;8.00;99.90;;;8.70;100.00;97781.25;4980219;28;20468;-75
2022/04/12 07:48:50;;;;;;;6.03;3.60;;;8.10;99.90;;;8.82;100.00;97763.34;4982369;28;21105;-75
2022/04/12 07:51:21;;;;;;;7.40;3.50;;;8.10;99.90;;;8.91;100.00;97755.25;4982085;28;20463;-75
2022/04/12 07:53:50;;;;;;;7.43;3.77;;;8.30;99.90;;;9.00;100.00;97750.72;4981114;28;20496;-75
2022/04/12 07:56:20;;;;;;;10.00;3.80;;;8.40;99.90;;;9.08;100.00;97745.38;4983022;28;20457;-75
2022/04/12 07:58:51;;;;;;;3.83;3.20;;;8.50;99.90;;;9.17;100.00;97740.84;4982475;28;20447;-75
2022/04/12 08:01:21;;;;;;;7.60;3.47;;;8.70;99.90;;;9.25;100.00;97738.94;4984225;28;20898;-75
2022/04/12 08:03:50;;;;;;;7.40;4.10;;;8.80;99.90;;;9.32;100.00;97742.41;4985355;28;20521;-75
2022/04/12 08:06:20;;;;;;;11.83;3.10;;;8.80;99.90;;;9.41;100.00;97740.47;4985704;28;20459;-75
2022/04/12 08:08:51;;;;;;;4.43;3.03;;;8.80;99.90;;;9.48;100.00;97739.53;4985192;28;20543;-74
2022/04/12 08:11:22;;;;;;;8.20;3.27;;;8.90;99.90;;;9.56;100.00;97739.44;4985992;28;20466;-74
2022/04/12 08:13:54;;;;;;;9.43;3.60;;;8.90;99.90;;;9.65;100.00;97752.34;4985247;28;20546;-74
2022/04/12 08:16:24;;;;;;;10.30;3.90;;;9.00;99.90;;;9.70;100.00;97744.75;4984109;28;20787;-74
2022/04/12 08:18:55;;;;;;;5.33;3.10;;;9.10;99.90;;;9.76;100.00;97750.03;4984402;28;20448;-74
2022/04/12 08:21:36;;;;;;;7.67;3.60;;;9.20;99.90;;;9.83;100.00;97753.50;4984259;28;20499;-74
2022/04/12 08:24:07;;;;;;;9.10;3.83;;;9.20;99.90;;;9.88;100.00;97742.50;4984068;28;20529;-74
2022/04/12 08:26:38;;;;;;;5.37;3.13;;;9.20;99.90;;;9.94;100.00;97746.94;4984832;28;20498;-74
2022/04/12 08:29:09;;;;;;;4.47;3.20;;;9.30;99.90;;;9.99;100.00;97750.63;4985869;28;20606;-74
2022/04/12 08:31:39;;;;;;;5.43;3.30;;;9.40;99.90;;;10.04;100.00;97744.81;4985965;28;20456;-74
2022/04/12 08:34:09;;;;;;;4.13;2.83;;;9.40;99.90;;;10.07;100.00;97742.63;4984901;28;20498;-74
2022/04/12 08:36:39;;;;;;;6.40;3.10;;;9.40;99.90;;;10.13;100.00;97748.91;4984976;28;20440;-74
2022/04/12 08:39:08;;;;;;;8.23;4.00;;;9.60;99.90;;;10.20;99.77;97754.19;4983902;28;20453;-74
2022/04/12 08:41:42;;;;;;;12.40;4.03;;;9.60;99.90;;;10.25;99.01;97747.38;4979681;28;20962;-74
2022/04/12 08:44:16;;;;;;;5.63;3.37;;;9.70;99.90;;;10.32;98.60;97753.47;4981613;28;20455;-74
2022/04/12 08:46:47;;;;;;;5.43;2.83;;;9.70;99.90;;;10.42;98.13;97743.44;4979249;28;20488;-74
2022/04/12 08:49:17;;;;;;;4.00;2.90;;;9.90;99.90;;;10.47;97.84;97741.09;4979480;28;20504;-74
2022/04/12 08:51:49;;;;;;;4.77;2.80;;;9.90;99.90;;;10.56;97.60;97737.28;4979360;28;20451;-75
2022/04/12 08:54:19;;;;;;;5.50;2.90;;;10.00;99.90;;;10.64;97.20;97727.66;4978318;28;20997;-75
2022/04/12 08:56:50;;;;;;;4.87;3.07;;;10.10;99.90;;;10.72;96.54;97724.91;4977394;28;20476;-74
2022/04/12 08:59:23;;;;;;;3.13;2.77;;;10.20;99.90;;;10.79;95.78;97726.53;4981961;28;20444;-74
2022/04/12 09:01:54;;;;;;;4.97;2.77;;;10.20;99.90;;;10.90;95.24;97732.97;4984938;28;20857;-74
2022/04/12 09:04:26;;;;;;;6.63;3.10;;;10.30;99.90;;;10.97;95.11;97729.38;4983616;28;20464;-74
2022/04/12 09:06:59;;;;;;;3.60;2.83;;;10.50;99.90;;;11.07;93.78;97724.59;4986002;28;20439;-74
2022/04/12 09:09:34;;;;;;;5.03;2.50;;;10.70;99.90;;;11.18;95.05;97717.97;4983687;28;20445;-75
2022/04/12 09:12:09;;;;;;;3.93;2.30;;;10.70;99.90;;;11.28;94.94;97710.53;4984270;28;20539;-74
2022/04/12 09:14:43;;;;;;;4.03;2.40;;;10.80;99.90;;;11.37;95.15;97714.59;4983841;28;20553;-74
2022/04/12 09:17:15;;;;;;;5.90;2.80;;;10.90;99.90;;;11.49;94.76;97715.59;4983846;28;20452;-74
2022/04/12 09:19:48;;;;;;;6.53;3.23;;;11.00;99.90;;;11.61;92.83;97713.19;4983730;28;20953;-75
2022/04/12 09:22:21;;;;;;;3.80;2.27;;;11.10;99.90;;;11.70;92.35;97704.09;4985552;28;20457;-75
2022/04/12 09:24:53;;;;;;;4.13;2.70;;;11.20;99.90;;;11.79;92.40;97697.69;4983194;28;20475;-75
2022/04/12 09:27:25;;;;;;;6.10;2.20;;;11.20;99.90;;;11.91;92.22;97700.50;4983498;28;20460;-75
2022/04/12 09:29:59;;;;;;;3.30;2.20;;;11.40;99.90;;;11.98;91.39;97689.00;4984429;28;20499;-75
2022/04/12 09:32:32;;;;;;;2.50;2.10;;;11.60;99.90;;;12.08;91.34;97691.19;4983173;28;20498;-75
2022/04/12 09:35:01;;;;;;;7.63;2.17;;;11.60;99.90;;;12.21;90.23;97682.50;4984988;28;20504;-75
2022/04/12 09:37:35;;;;;;;5.00;2.00;;;11.90;99.70;;;12.33;89.25;97679.03;4983764;28;20448;-75
2022/04/12 09:40:11;;;;;;;4.90;2.80;;;12.00;99.60;;;12.42;88.94;97677.81;4984334;28;21151;-75
2022/04/12 09:42:48;;;;;;;2.90;2.30;;;12.00;99.50;;;12.51;88.87;97676.53;4984144;28;20456;-75
2022/04/12 09:45:22;;;;;;;4.03;2.17;;;12.10;99.50;;;12.61;88.48;97674.28;4983428;28;20444;-75
2022/04/12 09:48:02;;;;;;;4.27;2.53;;;12.20;99.80;;;12.72;88.51;97672.00;4983650;28;20475;-75
2022/04/12 09:50:52;;;;;;;5.10;2.10;;;12.30;99.50;;;12.80;87.25;97658.66;4982518;28;20958;-75
2022/04/12 09:53:37;;;;;;;3.97;2.40;;;12.40;99.20;;;12.86;86.17;97657.81;4983416;28;20439;-75
2022/04/12 09:56:21;;;;;;;3.03;2.17;;;12.50;98.90;;;12.93;86.30;97653.31;4984450;28;20482;-75
2022/04/12 09:58:53;;;;;;;3.20;2.30;;;12.50;98.90;;;13.01;86.28;97651.25;4978270;28;20448;-75
2022/04/12 10:01:26;;;;;;;2.90;1.80;;;12.60;99.00;;;13.07;86.40;97636.47;4976895;28;20967;-75
2022/04/12 10:03:58;;;;;;;8.63;2.67;;;12.70;99.30;;;13.17;85.48;97633.41;4977615;28;20532;-76
2022/04/12 10:06:29;;;;;;;3.20;2.10;;;12.90;98.70;;;13.27;85.46;97639.78;4977099;28;20455;-75
2022/04/12 10:09:01;;;;;;;3.23;2.20;;;12.90;98.70;;;13.34;85.27;97635.28;4978101;28;20478;-75
2022/04/12 10:11:30;;;;;;;3.03;1.90;;;13.00;98.80;;;13.43;83.60;97623.47;4977419;28;21034;-75
2022/04/12 10:14:01;;;;;;;2.90;1.83;;;13.10;98.30;;;13.51;83.52;97615.34;4977704;28;20488;-75
2022/04/12 10:16:35;;;;;;;3.20;1.60;;;13.10;98.40;;;13.59;83.93;97615.06;4977768;28;20449;-75
2022/04/12 10:19:06;;;;;;;3.37;2.10;;;13.20;98.60;;;13.67;83.23;97611.38;4976528;28;20952;-75
2022/04/12 10:21:36;;;;;;;6.50;2.00;;;13.20;98.30;;;13.72;82.73;97610.69;4974506;28;20982;-75
2022/04/12 10:24:12;;;;;;;5.30;1.77;;;13.40;98.30;;;13.79;82.39;97606.16;4977453;28;20445;-75
2022/04/12 10:26:46;;;;;;;3.43;1.60;;;13.40;98.10;;;13.90;80.33;97608.09;4978231;28;20440;-75
2022/04/12 10:29:16;;;;;;;2.70;1.73;;;13.60;97.50;;;14.05;79.80;97605.91;4977459;28;20440;-75
2022/04/12 10:32:01;;;;;;;8.90;2.00;;;13.80;97.40;;;14.22;78.58;97600.84;4977267;28;20464;-76
2022/04/12 10:35:02;;;;;;;3.10;1.50;;;13.90;97.20;;;14.34;79.42;97604.34;4982376;28;20866;-75
2022/04/12 10:37:33;;;;;;;3.37;1.97;;;14.00;97.60;;;14.48;78.14;97596.06;4982183;28;20531;-75
2022/04/12 10:40:23;;;;;;;2.70;1.87;;;14.00;97.40;;;14.55;78.31;97593.34;4983878;28;20789;-76
2022/04/12 10:43:03;;;;;;;1.90;1.67;;;14.10;97.40;;;14.61;78.67;97585.38;4982561;28;20467;-75